Time;durP1;ratioP1;P1;durP2;ratioP2;P2;SDS_P1;SDS_P2;PMS_P1;PMS_P2;Temp;Humidity;BMP_temperature;BMP_pressure;BME280_temperature;BME280_humidity;BME280_pressure;Samples;Min_cycle;Max_cycle;Signal;HPM_P1;HPM_P2
2021/03/09 00:01:08;;;;;;;29.08;12.13;;;;;;;-2.99;100.00;98183.94;5032403;28;20099;-78
2021/03/09 00:03:35;;;;;;;29.95;12.15;;;;;;;-2.95;100.00;98185.13;5022769;28;20046;-79
2021/03/09 00:06:01;;;;;;;32.13;11.82;;;;;;;-2.99;100.00;98174.13;5015429;28;20077;-78
2021/03/09 00:08:27;;;;;;;26.83;12.20;;;;;;;-2.98;100.00;98186.34;5000428;28;20065;-78
2021/03/09 00:10:53;;;;;;;29.75;12.48;;;;;;;-3.01;100.00;98180.66;5013071;28;20073;-78
2021/03/09 00:13:19;;;;;;;26.52;11.88;;;;;;;-3.03;100.00;98182.72;5023303;28;20068;-78
2021/03/09 00:15:45;;;;;;;29.90;12.18;;;;;;;-3.09;100.00;98179.09;5016078;28;20133;-79
2021/03/09 00:18:12;;;;;;;28.42;11.60;;;;;;;-3.03;100.00;98183.56;5013534;28;20137;-78
2021/03/09 00:20:38;;;;;;;29.13;12.05;;;;;;;-3.07;100.00;98176.25;5029562;28;20048;-78
2021/03/09 00:23:05;;;;;;;30.88;11.85;;;;;;;-3.02;100.00;98177.22;5012585;28;20053;-78
2021/03/09 00:25:31;;;;;;;31.40;12.10;;;;;;;-3.04;100.00;98176.63;5013799;28;20049;-78
2021/03/09 00:27:57;;;;;;;31.75;12.45;;;;;;;-3.01;100.00;98178.84;5012104;28;20412;-78
2021/03/09 00:30:24;;;;;;;28.70;13.10;;;;;;;-3.03;100.00;98172.13;5031055;28;20084;-78
2021/03/09 00:32:50;;;;;;;34.30;13.45;;;;;;;-2.97;100.00;98182.69;5033379;28;20115;-78
2021/03/09 00:35:17;;;;;;;34.38;13.93;;;;;;;-3.00;100.00;98192.91;5033242;28;20045;-77
2021/03/09 00:37:43;;;;;;;31.40;12.98;;;;;;;-2.93;100.00;98185.72;5033183;28;20041;-77
2021/03/09 00:40:10;;;;;;;32.90;13.23;;;;;;;-2.87;100.00;98182.22;5031129;28;20055;-78
2021/03/09 00:42:36;;;;;;;28.83;12.57;;;;;;;-2.86;100.00;98189.94;5031728;28;20053;-78
2021/03/09 00:45:03;;;;;;;31.02;13.00;;;;;;;-2.88;100.00;98176.09;5032102;28;20041;-78
2021/03/09 00:47:39;;;;;;;33.33;12.85;;;;;;;-2.87;100.00;98175.09;5031163;28;20045;-77
2021/03/09 00:50:06;;;;;;;27.60;12.90;;;;;;;-2.89;100.00;98182.41;5031598;28;20149;-78
2021/03/09 00:52:34;;;;;;;34.67;13.52;;;;;;;-2.93;100.00;98177.75;5033159;28;20444;-77
2021/03/09 00:55:00;;;;;;;30.40;13.27;;;;;;;-2.94;100.00;98171.66;5026983;28;20042;-77
2021/03/09 00:57:26;;;;;;;30.35;13.15;;;;;;;-3.04;100.00;98168.69;5010792;28;20052;-79
2021/03/09 00:59:52;;;;;;;31.40;12.30;;;;;;;-3.04;100.00;98176.63;5013463;28;20042;-79
2021/03/09 01:02:18;;;;;;;29.13;13.10;;;;;;;-3.00;100.00;98158.47;5017058;28;20052;-79
2021/03/09 01:04:44;;;;;;;30.98;13.02;;;;;;;-2.94;100.00;98166.34;5015245;28;20116;-78
2021/03/09 01:07:11;;;;;;;30.95;13.02;;;;;;;-2.91;100.00;98165.09;5015817;28;20057;-77
2021/03/09 01:09:37;;;;;;;31.83;12.30;;;;;;;-2.92;100.00;98156.38;5030378;28;20050;-78
2021/03/09 01:12:04;;;;;;;30.17;13.10;;;;;;;-2.90;100.00;98151.66;4998569;28;20046;-79
2021/03/09 01:14:30;;;;;;;29.83;13.68;;;;;;;-2.94;100.00;98158.41;4997723;28;20050;-78
2021/03/09 01:16:56;;;;;;;27.88;12.32;;;;;;;-2.87;100.00;98156.53;5016700;28;20049;-78
2021/03/09 01:19:23;;;;;;;27.90;12.93;;;;;;;-2.85;100.00;98148.38;5017740;28;20041;-78
2021/03/09 01:21:50;;;;;;;22.95;11.32;;;;;;;-2.82;100.00;98146.09;5017214;28;20050;-78
2021/03/09 01:24:16;;;;;;;26.48;12.18;;;;;;;-2.83;100.00;98144.47;5018259;28;20046;-78
2021/03/09 01:26:42;;;;;;;29.58;12.35;;;;;;;-2.87;100.00;98131.88;5024004;28;20481;-78
2021/03/09 01:29:08;;;;;;;30.35;12.43;;;;;;;-2.85;100.00;98138.59;5015620;28;20532;-77
2021/03/09 01:31:38;;;;;;;26.73;12.05;;;;;;;-2.82;100.00;98127.56;5016352;28;20057;-77
2021/03/09 01:34:04;;;;;;;24.60;11.85;;;;;;;-2.90;100.00;98130.47;5015937;28;20073;-79
2021/03/09 01:36:31;;;;;;;28.98;11.98;;;;;;;-2.90;100.00;98122.53;5031988;28;20041;-79
2021/03/09 01:38:57;;;;;;;31.73;12.50;;;;;;;-2.90;100.00;98127.00;5018388;28;20054;-76
2021/03/09 01:41:24;;;;;;;32.83;12.05;;;;;;;-2.90;100.00;98122.53;5015084;28;20052;-78
2021/03/09 01:43:50;;;;;;;27.92;11.25;;;;;;;-2.94;100.00;98113.38;5016511;28;20060;-78
2021/03/09 01:46:17;;;;;;;25.75;11.57;;;;;;;-2.92;100.00;98108.72;5017096;28;20122;-78
2021/03/09 01:48:46;;;;;;;32.75;12.65;;;;;;;-2.92;100.00;98102.59;5031794;28;20046;-77
2021/03/09 01:51:18;;;;;;;26.20;11.93;;;;;;;-2.88;100.00;98096.63;4999486;28;20052;-78
2021/03/09 01:53:45;;;;;;;28.83;11.75;;;;;;;-2.89;100.00;98095.00;5032815;28;20045;-79
2021/03/09 01:56:12;;;;;;;26.55;11.68;;;;;;;-2.78;100.00;98096.94;5014894;28;20133;-77
2021/03/09 01:58:40;;;;;;;25.73;11.98;;;;;;;-2.82;100.00;98095.78;5030558;28;20064;-78
2021/03/09 02:01:06;;;;;;;24.27;11.23;;;;;;;-2.80;100.00;98090.25;5036187;28;20049;-78
2021/03/09 02:03:33;;;;;;;27.05;11.30;;;;;;;-2.89;100.00;98088.91;5017744;28;20050;-77
2021/03/09 02:06:01;;;;;;;29.83;11.82;;;;;;;-2.82;100.00;98087.00;5015414;28;20077;-77
2021/03/09 02:08:27;;;;;;;27.17;11.90;;;;;;;-2.88;100.00;98072.78;4997460;28;20057;-77
2021/03/09 02:10:54;;;;;;;35.97;11.57;;;;;;;-2.89;100.00;98076.47;5013537;28;20097;-78
2021/03/09 02:13:43;;;;;;;26.13;10.43;;;;;;;-2.86;100.00;98080.50;5015791;28;20173;-77
2021/03/09 02:16:21;;;;;;;29.83;11.55;;;;;;;-2.98;100.00;98072.50;5018128;28;20046;-76
2021/03/09 02:19:36;;;;;;;24.83;11.15;;;;;;;-2.96;100.00;98081.00;5031962;28;20072;-77
2021/03/09 02:22:39;;;;;;;28.35;11.35;;;;;;;-2.91;100.00;98075.88;5023591;28;20042;-78
2021/03/09 02:25:32;;;;;;;26.55;11.43;;;;;;;-2.91;100.00;98077.72;5012715;28;20064;-78
2021/03/09 02:28:14;;;;;;;23.17;10.90;;;;;;;-2.89;100.00;98067.72;5020818;28;20128;-78
2021/03/09 02:30:43;;;;;;;26.08;11.25;;;;;;;-2.88;100.00;98077.28;5003305;28;20046;-77
2021/03/09 02:33:21;;;;;;;24.13;11.35;;;;;;;-2.98;100.00;98076.97;5018107;28;20065;-78
2021/03/09 02:35:54;;;;;;;24.50;11.00;;;;;;;-2.93;100.00;98077.13;5039224;28;20038;-78
2021/03/09 02:38:23;;;;;;;24.40;10.48;;;;;;;-2.89;100.00;98071.16;5022316;28;20046;-78
2021/03/09 02:40:57;;;;;;;23.13;10.35;;;;;;;-2.90;100.00;98074.88;5019493;28;20045;-78
2021/03/09 02:43:25;;;;;;;23.52;9.65;;;;;;;-2.90;100.00;98066.91;5019136;28;20042;-78
2021/03/09 02:45:53;;;;;;;22.98;9.38;;;;;;;-2.86;100.00;98062.78;5030214;28;20050;-77
2021/03/09 02:48:22;;;;;;;25.40;9.77;;;;;;;-2.88;100.00;98059.56;5016727;28;20536;-78
2021/03/09 02:50:51;;;;;;;25.35;9.45;;;;;;;-2.83;100.00;98062.34;5018668;28;20110;-79
2021/03/09 02:53:20;;;;;;;22.40;9.15;;;;;;;-2.79;100.00;98054.78;5019691;28;20105;-78
2021/03/09 02:55:50;;;;;;;22.10;10.25;;;;;;;-2.73;100.00;98056.53;5015571;28;20045;-77
2021/03/09 02:58:23;;;;;;;23.48;9.52;;;;;;;-2.74;100.00;98033.75;5014427;28;20038;-78
2021/03/09 03:00:52;;;;;;;20.30;9.60;;;;;;;-2.63;100.00;98044.41;5017007;28;20038;-77
2021/03/09 03:03:19;;;;;;;21.23;9.35;;;;;;;-2.59;100.00;98042.94;5016327;28;20076;-77
2021/03/09 03:05:48;;;;;;;23.75;8.73;;;;;;;-2.52;100.00;98038.38;5023246;28;20520;-77
2021/03/09 03:08:15;;;;;;;21.23;8.98;;;;;;;-2.53;100.00;98036.75;5026320;28;20081;-77
2021/03/09 03:10:46;;;;;;;19.33;8.63;;;;;;;-2.47;100.00;98039.53;5021423;28;20049;-79
2021/03/09 03:13:14;;;;;;;20.67;8.55;;;;;;;-2.47;100.00;98029.75;5014967;28;20202;-78
2021/03/09 03:15:41;;;;;;;18.10;7.82;;;;;;;-2.40;100.00;98033.13;5016134;28;20056;-78
2021/03/09 03:18:13;;;;;;;21.17;7.68;;;;;;;-2.44;100.00;98031.97;5017661;28;20073;-78
2021/03/09 03:20:42;;;;;;;18.23;7.57;;;;;;;-2.43;100.00;98035.44;5001412;28;20413;-79
2021/03/09 03:23:10;;;;;;;19.08;7.80;;;;;;;-2.42;100.00;98023.78;5018003;28;20050;-78
2021/03/09 03:25:36;;;;;;;16.55;8.30;;;;;;;-2.44;100.00;98034.63;5017849;28;20054;-78
2021/03/09 03:28:07;;;;;;;21.20;7.80;;;;;;;-2.42;100.00;98029.91;5018628;28;20042;-77
2021/03/09 03:30:36;;;;;;;17.88;7.95;;;;;;;-2.42;100.00;98035.19;5016571;28;20458;-78
2021/03/09 03:33:03;;;;;;;21.55;7.75;;;;;;;-2.38;100.00;98031.09;5012643;28;20129;-77
2021/03/09 03:35:30;;;;;;;19.00;7.80;;;;;;;-2.40;100.00;98030.47;5019833;28;20058;-78
2021/03/09 03:37:57;;;;;;;19.45;7.30;;;;;;;-2.39;100.00;98036.59;5020691;28;20045;-78
2021/03/09 03:40:24;;;;;;;16.98;6.80;;;;;;;-2.36;100.00;98028.19;5019090;28;20038;-78
2021/03/09 03:42:50;;;;;;;18.08;7.47;;;;;;;-2.32;100.00;98026.75;5018075;28;20052;-78
2021/03/09 03:45:19;;;;;;;17.52;7.50;;;;;;;-2.30;100.00;98025.47;5024474;28;20097;-77
2021/03/09 03:47:47;;;;;;;18.77;8.40;;;;;;;-2.29;100.00;98031.56;5000446;28;20098;-77
2021/03/09 03:50:16;;;;;;;18.17;7.95;;;;;;;-2.33;100.00;98030.41;4999042;28;20127;-77
2021/03/09 03:52:56;;;;;;;18.30;7.20;;;;;;;-2.28;100.00;98031.38;5015003;28;20075;-78
2021/03/09 03:56:01;;;;;;;25.50;8.07;;;;;;;-2.28;100.00;98027.91;5016114;28;20462;-77
2021/03/09 03:58:34;;;;;;;20.33;8.43;;;;;;;-2.23;100.00;98038.63;4977789;28;20054;-77
2021/03/09 04:01:02;;;;;;;23.05;7.43;;;;;;;-2.30;100.00;98022.84;4995439;28;20042;-79
2021/03/09 04:03:31;;;;;;;16.92;7.65;;;;;;;-2.34;100.00;98018.19;5007882;28;20073;-77
2021/03/09 04:06:03;;;;;;;17.58;7.32;;;;;;;-2.37;100.00;98022.09;5020183;28;20037;-78
2021/03/09 04:08:31;;;;;;;18.30;7.82;;;;;;;-2.40;100.00;98022.53;5020049;28;20122;-78
2021/03/09 04:10:58;;;;;;;18.42;8.93;;;;;;;-2.40;100.00;98027.81;5020194;28;20066;-77
2021/03/09 04:13:25;;;;;;;19.70;8.15;;;;;;;-2.42;100.00;98006.03;5019686;28;20072;-79
2021/03/09 04:15:52;;;;;;;21.08;8.45;;;;;;;-2.34;100.00;98016.34;5019925;28;20042;-79
2021/03/09 04:18:19;;;;;;;16.95;7.38;;;;;;;-2.34;100.00;98016.34;5014469;28;20042;-78
2021/03/09 04:20:45;;;;;;;19.20;7.97;;;;;;;-2.42;100.00;98010.53;5015960;28;20049;-78
2021/03/09 04:23:13;;;;;;;19.50;7.97;;;;;;;-2.34;100.00;98010.22;5036187;23;20434;-78
2021/03/09 04:25:41;;;;;;;16.70;7.55;;;;;;;-2.28;100.00;98012.00;5027940;28;20107;-79
2021/03/09 04:28:10;;;;;;;16.10;7.18;;;;;;;-2.29;100.00;98015.66;5027887;28;20065;-79
2021/03/09 04:30:37;;;;;;;18.02;7.68;;;;;;;-2.31;100.00;98025.69;5025995;28;20057;-80
2021/03/09 04:33:03;;;;;;;21.95;8.50;;;;;;;-2.26;100.00;98015.22;4998456;28;20509;-79
2021/03/09 04:35:30;;;;;;;16.02;7.00;;;;;;;-2.25;100.00;98014.19;4987846;28;20102;-79
2021/03/09 04:37:56;;;;;;;18.35;7.60;;;;;;;-2.28;100.00;98004.03;5014572;23;20064;-80
2021/03/09 04:40:24;;;;;;;16.70;7.25;;;;;;;-2.24;100.00;97998.06;5029624;28;20296;-80
2021/03/09 04:42:53;;;;;;;16.60;7.15;;;;;;;-2.22;100.00;98005.81;5015268;28;20092;-80
2021/03/09 04:45:21;;;;;;;19.00;8.27;;;;;;;-2.40;100.00;97998.66;4997751;28;20140;-80
2021/03/09 04:47:49;;;;;;;19.50;7.80;;;;;;;-2.31;100.00;97997.34;5006066;28;20050;-80
2021/03/09 04:50:16;;;;;;;18.27;8.07;;;;;;;-2.25;100.00;98003.59;5012373;28;20042;-80
2021/03/09 04:52:49;;;;;;;18.75;7.93;;;;;;;-2.38;100.00;97993.97;4988363;28;20046;-79
2021/03/09 04:55:20;;;;;;;17.52;7.15;;;;;;;-2.28;100.00;98001.38;5000162;28;20046;-79
2021/03/09 04:57:47;;;;;;;17.35;7.60;;;;;;;-2.41;100.00;97996.25;5006569;28;20050;-80
2021/03/09 05:00:19;;;;;;;16.23;7.57;;;;;;;-2.40;100.00;97993.38;5001084;28;20052;-79
2021/03/09 05:02:48;;;;;;;19.25;7.47;;;;;;;-2.27;100.00;98006.44;5017500;28;20064;-79
2021/03/09 05:05:20;;;;;;;19.55;7.72;;;;;;;-2.28;100.00;97998.72;5016686;28;20050;-80
2021/03/09 05:07:47;;;;;;;17.77;7.30;;;;;;;-2.30;100.00;97990.19;5017744;28;20046;-80
2021/03/09 05:10:15;;;;;;;18.08;8.60;;;;;;;-2.38;100.00;97991.31;5033068;28;20046;-79
2021/03/09 05:12:54;;;;;;;20.85;8.25;;;;;;;-2.23;100.00;98007.63;5014091;28;20053;-79
2021/03/09 05:15:23;;;;;;;25.95;8.23;;;;;;;-2.27;100.00;98003.81;4987702;28;20046;-79
2021/03/09 05:17:53;;;;;;;18.05;7.43;;;;;;;-2.41;100.00;97975.88;4980825;28;20426;-79
2021/03/09 05:20:24;;;;;;;18.25;8.43;;;;;;;-2.30;100.00;97998.97;4997989;28;20077;-80
2021/03/09 05:22:56;;;;;;;17.20;7.50;;;;;;;-2.32;100.00;98000.22;4997411;28;20406;-80
2021/03/09 05:25:23;;;;;;;18.25;7.57;;;;;;;-2.44;100.00;97978.13;4982260;28;20531;-80
2021/03/09 05:27:50;;;;;;;19.08;8.55;;;;;;;-2.25;100.00;97993.00;5004900;28;20069;-79
2021/03/09 05:30:19;;;;;;;20.77;7.45;;;;;;;-2.40;100.00;98003.97;4978256;28;20068;-78
2021/03/09 05:32:46;;;;;;;20.15;8.15;;;;;;;-2.53;100.00;97996.22;5008627;28;20517;-77
2021/03/09 05:35:14;;;;;;;21.83;7.53;;;;;;;-2.51;100.00;98002.09;5008250;28;20047;-78
2021/03/09 05:37:44;;;;;;;21.30;7.97;;;;;;;-2.40;100.00;98003.19;5011381;28;20114;-79
2021/03/09 05:40:11;;;;;;;17.50;7.88;;;;;;;-2.28;100.00;98007.50;4996966;28;20066;-80
2021/03/09 05:42:38;;;;;;;18.27;7.78;;;;;;;-2.27;100.00;98003.03;4996927;28;20441;-78
2021/03/09 05:45:06;;;;;;;16.33;7.65;;;;;;;-2.21;100.00;98007.41;4997721;28;20359;-79
2021/03/09 05:47:36;;;;;;;18.40;7.80;;;;;;;-2.16;100.00;97999.59;5011534;28;20042;-79
2021/03/09 05:50:04;;;;;;;18.88;7.80;;;;;;;-2.10;100.00;98014.59;5012150;28;20054;-78
2021/03/09 05:52:33;;;;;;;23.08;7.35;;;;;;;-2.07;100.00;98011.50;4997991;28;20057;-79
2021/03/09 05:55:00;;;;;;;16.13;7.72;;;;;;;-2.08;100.00;98004.56;4996966;28;20042;-80
2021/03/09 05:57:26;;;;;;;20.13;8.30;;;;;;;-2.00;100.00;97996.31;4998727;28;20409;-79
2021/03/09 05:59:55;;;;;;;17.23;7.28;;;;;;;-1.98;100.00;97995.03;4998772;28;20051;-79
2021/03/09 06:02:21;;;;;;;17.52;7.53;;;;;;;-1.97;100.00;97993.22;5005177;28;20157;-80
2021/03/09 06:04:48;;;;;;;25.55;7.32;;;;;;;-0.66;100.00;98001.59;5002680;28;20045;-79
2021/03/09 06:07:18;;;;;;;22.77;7.90;;;;;;;-1.20;100.00;97984.19;4986786;28;20046;-79
2021/03/09 06:09:46;;;;;;;23.17;7.20;;;;;;;-1.35;100.00;97997.94;5009903;28;20060;-80
2021/03/09 06:12:22;;;;;;;18.58;7.35;;;;;;;-1.50;100.00;97992.28;5014589;28;20042;-79
2021/03/09 06:14:59;;;;;;;10.88;4.93;;;;;;;-1.55;100.00;98002.75;5014268;28;20050;-79
2021/03/09 06:17:35;;;;;;;23.58;8.07;;;;;;;-1.54;100.00;97993.75;5012968;28;20066;-80
2021/03/09 06:20:17;;;;;;;14.82;7.68;;;;;;;-1.43;100.00;97990.31;5014835;28;20305;-80
2021/03/09 06:22:48;;;;;;;28.60;7.78;;;;;;;-1.40;100.00;97994.34;5016020;28;20109;-80
2021/03/09 06:25:20;;;;;;;22.58;7.93;;;;;;;-1.33;100.00;97989.75;4999170;28;20050;-79
2021/03/09 06:27:47;;;;;;;23.98;8.52;;;;;;;-1.22;100.00;97985.47;4996760;28;20042;-79
2021/03/09 06:30:27;;;;;;;21.27;7.30;;;;;;;-1.29;100.00;97986.38;4978056;28;20498;-79
2021/03/09 06:32:54;;;;;;;19.83;8.00;;;;;;;-1.27;100.00;97978.22;4994722;28;20060;-79
2021/03/09 06:35:36;;;;;;;18.98;7.03;;;;;;;-1.11;100.00;97976.72;4994225;28;20043;-79
2021/03/09 06:38:25;;;;;;;24.27;8.52;;;;;;;-1.04;100.00;97978.19;5007347;28;20046;-80
2021/03/09 06:41:19;;;;;;;21.30;8.18;;;;;;;-0.92;100.00;97996.78;4998468;28;20433;-80
2021/03/09 06:43:59;;;;;;;17.33;7.50;;;;;;;-0.78;100.00;97995.50;5005781;28;20038;-80
2021/03/09 06:46:25;;;;;;;17.10;7.28;;;;;;;-0.77;100.00;97989.13;5026618;28;20084;-80
2021/03/09 06:49:02;;;;;;;17.48;7.95;;;;;;;-0.64;100.00;97988.88;4995947;28;20096;-79
2021/03/09 06:51:31;;;;;;;;;;;;;;;-0.54;100.00;97985.63;4997459;28;20057;-80
2021/03/09 06:54:06;;;;;;;23.98;8.35;;;;;;;-0.54;100.00;97986.41;5021233;28;20012;-80
2021/03/09 06:56:38;;;;;;;26.23;9.50;;;;;;;-0.34;100.00;97997.47;5016025;28;20042;-81
2021/03/09 06:59:28;;;;;;;53.90;19.65;;;;;;;-0.27;100.00;97995.47;5015661;28;20038;-80
2021/03/09 07:02:11;;;;;;;85.25;31.58;;;;;;;-0.22;100.00;98002.75;5014804;28;20084;-80
2021/03/09 07:04:43;;;;;;;83.22;32.85;;;;;;;-0.10;100.00;98004.31;5016908;28;20050;-80
2021/03/09 07:07:11;;;;;;;42.40;17.27;;;;;;;-0.11;100.00;97999.25;5013071;28;20034;-82
2021/03/09 07:09:39;;;;;;;28.50;12.00;;;;;;;-0.13;100.00;97998.69;5008597;28;20061;-81
2021/03/09 07:12:11;;;;;;;22.65;10.27;;;;;;;0.06;100.00;98010.72;5033853;28;20056;-80
2021/03/09 07:14:39;;;;;;;24.15;9.10;;;;;;;0.18;100.00;98008.81;5010475;28;20053;-80
2021/03/09 07:17:08;;;;;;;19.27;8.02;;;;;;;0.49;100.00;97999.50;4994886;28;20101;-81
2021/03/09 07:19:42;;;;;;;19.45;8.45;;;;;;;0.47;100.00;97998.94;4996781;28;20129;-80
2021/03/09 07:22:12;;;;;;;22.20;7.38;;;;;;;0.66;100.00;97995.00;4997126;28;20050;-80
2021/03/09 07:24:45;;;;;;;16.92;7.30;;;;;;;0.83;100.00;97993.13;4994124;28;20054;-80
2021/03/09 07:27:17;;;;;;;22.80;7.65;;;;;;;1.06;100.00;97995.59;4993941;28;20051;-80
2021/03/09 07:29:50;;;;;;;17.58;7.25;;;;;;;1.11;100.00;98010.88;4995603;28;20053;-80
2021/03/09 07:32:21;;;;;;;21.98;7.57;;;;;;;1.09;100.00;98002.28;4994789;28;20120;-80
2021/03/09 07:34:49;;;;;;;16.50;6.82;;;;;;;1.31;100.00;98013.00;4977734;28;20483;-80
2021/03/09 07:37:17;;;;;;;22.33;7.45;;;;;;;1.47;100.00;97999.59;4978407;28;20035;-81
2021/03/09 07:39:44;;;;;;;21.25;7.10;;;;;;;1.45;100.00;97999.03;4995411;28;20126;-81
2021/03/09 07:42:11;;;;;;;20.33;7.78;;;;;;;1.53;100.00;97990.63;5013080;28;20077;-81
2021/03/09 07:44:41;;;;;;;19.42;7.18;;;;;;;1.53;100.00;97995.94;5015557;28;20041;-81
2021/03/09 07:47:10;;;;;;;16.35;6.80;;;;;;;1.55;100.00;98004.50;5032512;28;20140;-80
2021/03/09 07:49:38;;;;;;;17.80;6.85;;;;;;;1.45;100.00;98000.91;5033734;28;20046;-80
2021/03/09 07:52:07;;;;;;;20.42;6.78;;;;;;;1.50;100.00;98007.13;5034978;28;20495;-80
2021/03/09 07:54:33;;;;;;;15.43;6.65;;;;;;;1.50;100.00;97992.97;5037691;28;20152;-80
2021/03/09 07:57:21;;;;;;;20.08;6.25;;;;;;;1.65;100.00;98003.84;5036309;28;20236;-80
2021/03/09 08:00:14;;;;;;;15.82;6.50;;;;;;;1.65;100.00;98009.19;5041066;28;20049;-80
2021/03/09 08:02:44;;;;;;;16.10;6.85;;;;;;;1.64;100.00;97999.56;5022283;28;20056;-80
2021/03/09 08:05:15;;;;;;;19.55;6.50;;;;;;;1.81;100.00;98006.44;5017761;28;20483;-81
2021/03/09 08:08:04;;;;;;;19.17;6.47;;;;;;;1.82;100.00;97999.25;5032102;28;20037;-81
2021/03/09 08:10:29;;;;;;;14.93;6.38;;;;;;;1.91;100.00;98004.94;5029871;28;20057;-80
2021/03/09 08:13:16;;;;;;;15.73;5.50;;;;;;;2.00;100.00;98000.75;5035011;28;20048;-80
2021/03/09 08:15:43;;;;;;;12.27;5.60;;;;;;;2.16;100.00;97997.19;5021886;28;20049;-81
2021/03/09 08:18:16;;;;;;;18.38;5.97;;;;;;;2.42;100.00;97989.19;5013943;28;20046;-81
2021/03/09 08:20:52;;;;;;;13.10;5.90;;;;;;;2.42;100.00;97989.19;4999846;28;20589;-81
2021/03/09 08:23:36;;;;;;;;;;;;;;;2.12;100.00;97993.41;5028869;28;20048;-80
2021/03/09 08:26:05;;;;;;;15.57;6.03;;;;;;;2.47;100.00;97999.09;5009976;28;19952;-79
2021/03/09 08:28:47;;;;;;;19.35;5.97;;;;;;;2.80;100.00;97990.00;5026745;28;20054;-80
2021/03/09 08:31:16;;;;;;;13.98;5.43;;;;;;;3.12;100.00;97990.78;5023858;28;20046;-81
2021/03/09 08:33:52;;;;;;;17.45;5.78;;;;;;;3.18;100.00;97992.41;5014703;28;20506;-81
2021/03/09 08:36:26;;;;;;;13.10;5.78;;;;;;;3.30;100.00;97987.69;4996189;28;20129;-80
2021/03/09 08:41:36;;;;;;;;;;;;;;;;;;;;;
2021/03/09 08:47:07;;;;;;;13.57;5.57;;;;;;;3.61;89.04;97991.31;5008884;28;20110;-82
2021/03/09 08:49:34;;;;;;;13.85;6.53;;;;;;;3.90;84.79;97980.97;5017826;28;20042;-81
2021/03/09 08:52:07;;;;;;;20.83;8.48;;;;;;;3.88;82.57;97985.78;5023673;28;20050;-81
2021/03/09 08:54:48;;;;;;;17.73;6.72;;;;;;;4.23;78.16;97975.16;5013799;28;20050;-81
2021/03/09 08:57:22;;;;;;;15.35;5.90;;;;;;;4.56;73.01;97971.16;5016518;28;20053;-81
2021/03/09 08:59:51;;;;;;;15.68;4.90;;;;;;;4.80;72.00;97973.03;5030996;28;20455;-80
2021/03/09 09:02:17;;;;;;;20.20;5.07;;;;;;;4.73;68.68;97971.69;5012676;28;20307;-81
2021/03/09 09:04:55;;;;;;;10.88;5.00;;;;;;;5.02;68.49;97968.19;5014170;28;20072;-80
2021/03/09 09:07:24;;;;;;;8.98;4.22;;;;;;;4.99;62.54;97970.59;5033628;28;20049;-79
2021/03/09 09:09:53;;;;;;;10.50;4.90;;;;;;;5.04;58.46;97973.28;5033448;28;20041;-80
2021/03/09 09:12:31;;;;;;;12.07;4.90;;;;;;;5.03;61.27;97971.69;5033712;28;20048;-79
2021/03/09 09:15:15;;;;;;;12.75;5.45;;;;;;;5.08;61.16;97970.88;5028881;28;20047;-80
2021/03/09 09:17:48;;;;;;;11.98;5.00;;;;;;;5.19;62.62;97964.41;5011705;28;20041;-80
2021/03/09 09:20:27;;;;;;;12.55;4.68;;;;;;;5.50;58.72;97968.59;5022228;28;20053;-82
2021/03/09 09:22:54;;;;;;;11.60;4.80;;;;;;;5.78;58.40;97973.31;5034347;28;20103;-82
2021/03/09 09:25:22;;;;;;;11.07;5.10;;;;;;;5.98;56.94;97977.84;5033361;28;20042;-81
2021/03/09 09:27:54;;;;;;;9.88;4.65;;;;;;;6.21;53.00;97967.22;5032777;28;20037;-81
2021/03/09 09:30:22;;;;;;;9.65;4.60;;;;;;;6.19;51.53;97963.22;5031862;28;20056;-82
2021/03/09 09:32:52;;;;;;;11.15;4.13;;;;;;;6.34;50.99;97964.97;5034407;28;20052;-81
2021/03/09 09:35:20;;;;;;;13.90;4.47;;;;;;;6.11;50.59;97969.97;5021957;28;20409;-81
2021/03/09 09:37:55;;;;;;;11.77;4.50;;;;;;;6.55;49.25;97961.88;5016725;28;20088;-80
2021/03/09 09:40:26;;;;;;;8.18;4.30;;;;;;;6.50;49.07;97959.22;5017849;28;20129;-82
2021/03/09 09:42:53;;;;;;;12.57;4.93;;;;;;;6.56;49.06;97960.78;4996958;28;20058;-80
2021/03/09 09:45:20;;;;;;;10.27;4.88;;;;;;;6.74;48.55;97959.28;5018479;28;20045;-81
2021/03/09 09:47:49;;;;;;;11.55;5.03;;;;;;;6.76;49.01;97957.91;5018868;28;20501;-82
2021/03/09 09:50:17;;;;;;;11.50;4.95;;;;;;;7.05;46.01;97946.34;5019520;28;20084;-80
2021/03/09 09:52:58;;;;;;;10.25;4.60;;;;;;;6.23;49.45;97951.63;5017235;28;20052;-81
2021/03/09 09:55:26;;;;;;;9.00;4.70;;;;;;;6.42;48.60;97943.69;5015583;28;20049;-80
2021/03/09 09:57:58;;;;;;;9.05;5.00;;;;;;;6.56;50.50;97951.91;5017636;28;20129;-81
2021/03/09 10:00:53;;;;;;;13.93;5.88;;;;;;;6.85;46.34;97952.75;5009486;28;20046;-81
2021/03/09 10:03:20;;;;;;;9.13;4.78;;;;;;;6.74;47.38;97945.84;4994911;28;20344;-81
2021/03/09 10:05:47;;;;;;;11.60;5.13;;;;;;;6.83;44.82;97947.66;4999636;28;20497;-83
2021/03/09 10:08:33;;;;;;;13.45;5.38;;;;;;;7.15;45.07;97941.69;5020687;28;20476;-82
2021/03/09 10:11:01;;;;;;;9.65;5.10;;;;;;;7.11;42.37;97948.72;5017492;28;20045;-81
2021/03/09 10:13:28;;;;;;;9.77;5.55;;;;;;;7.60;43.12;97940.38;5016461;28;20401;-80
2021/03/09 10:15:55;;;;;;;9.55;5.22;;;;;;;7.96;43.28;97949.63;4994093;28;20553;-80
2021/03/09 10:18:33;;;;;;;9.57;5.45;;;;;;;8.26;43.48;97947.59;5010001;28;20071;-79
2021/03/09 10:21:08;;;;;;;12.85;5.55;;;;;;;7.41;44.73;97940.31;5006521;28;20045;-82
2021/03/09 10:23:54;;;;;;;11.88;5.70;;;;;;;8.74;40.09;97940.94;5017952;28;20064;-80
2021/03/09 10:26:38;;;;;;;12.48;6.43;;;;;;;8.07;41.68;97951.09;5025369;28;20282;-81
2021/03/09 10:29:15;;;;;;;10.00;5.72;;;;;;;8.56;40.16;97930.97;5011455;28;20380;-83
2021/03/09 10:31:53;;;;;;;11.07;6.50;;;;;;;8.63;40.14;97939.50;5055408;28;20084;-81
2021/03/09 10:34:39;;;;;;;14.80;5.78;;;;;;;9.34;40.32;97923.63;5046175;28;20056;-82
2021/03/09 10:39:56;;;;;;;13.45;7.20;;;;;;;10.41;37.65;97924.91;5033431;28;20060;-83
2021/03/09 10:42:39;;;;;;;12.07;6.65;;;;;;;9.97;36.96;97928.31;5022690;28;20077;-81
2021/03/09 10:45:18;;;;;;;12.10;6.80;;;;;;;9.64;37.00;97922.25;5018989;28;20041;-80
2021/03/09 10:48:01;;;;;;;12.43;6.65;;;;;;;10.59;34.94;97923.94;5032673;28;20128;-78
2021/03/09 10:50:30;;;;;;;13.40;6.80;;;;;;;9.37;36.65;97925.72;5002107;28;20042;-80
2021/03/09 10:52:57;;;;;;;12.80;6.95;;;;;;;10.16;36.14;97920.06;5016631;28;20044;-78
2021/03/09 10:55:24;;;;;;;11.95;6.90;;;;;;;10.91;35.51;97920.16;5034263;28;20218;-78
2021/03/09 10:57:50;;;;;;;14.05;7.28;;;;;;;10.64;36.32;97918.38;5035370;28;20042;-79
2021/03/09 11:00:18;;;;;;;10.63;6.90;;;;;;;11.66;33.75;97912.72;5036833;28;20052;-80
2021/03/09 11:02:46;;;;;;;13.60;6.55;;;;;;;11.12;35.39;97916.59;5037346;28;20124;-80
2021/03/09 11:05:12;;;;;;;15.00;6.55;;;;;;;11.47;34.60;97916.75;5036992;28;20128;-80
2021/03/09 11:07:40;;;;;;;12.07;6.65;;;;;;;11.29;35.44;97910.47;5050035;28;20045;-80
2021/03/09 11:10:07;;;;;;;10.55;6.40;;;;;;;10.84;33.42;97901.63;5027961;28;20519;-79
2021/03/09 11:12:34;;;;;;;11.27;6.32;;;;;;;9.56;34.88;97908.63;5011751;28;20428;-80
2021/03/09 11:15:00;;;;;;;11.85;6.50;;;;;;;10.13;36.58;97891.72;5009611;28;20068;-80
2021/03/09 11:17:26;;;;;;;10.40;6.32;;;;;;;10.48;34.65;97898.19;4959923;28;20133;-80
2021/03/09 11:19:55;;;;;;;11.15;6.70;;;;;;;11.18;33.16;97890.97;5009861;28;20048;-79
2021/03/09 11:22:21;;;;;;;13.07;6.50;;;;;;;12.33;32.92;97899.59;4997508;28;20050;-80
2021/03/09 11:24:47;;;;;;;12.48;6.25;;;;;;;12.82;31.86;97894.75;5031985;28;20072;-80
2021/03/09 11:27:14;;;;;;;11.32;6.75;;;;;;;11.81;32.75;97887.06;5012831;28;20197;-80
2021/03/09 11:29:40;;;;;;;11.55;6.72;;;;;;;14.44;29.29;97884.19;4999002;28;20124;-79
2021/03/09 11:32:07;;;;;;;12.00;6.57;;;;;;;14.11;29.23;97881.38;5035938;28;20038;-81
2021/03/09 11:34:34;;;;;;;9.10;6.25;;;;;;;14.83;28.79;97879.03;5039837;28;20049;-81
2021/03/09 11:37:00;;;;;;;10.88;6.20;;;;;;;15.37;27.26;97870.69;5033575;28;20122;-81
2021/03/09 11:39:27;;;;;;;9.48;5.90;;;;;;;15.51;26.09;97876.66;5024759;28;20535;-80
2021/03/09 11:41:55;;;;;;;8.43;5.82;;;;;;;14.98;27.45;97862.00;5008627;28;20055;-80
2021/03/09 11:44:22;;;;;;;8.55;5.78;;;;;;;14.32;26.92;97866.66;5020738;28;20053;-80
2021/03/09 11:46:49;;;;;;;8.82;5.80;;;;;;;14.98;28.10;97867.47;5000509;28;20134;-80